createdAt,value
2024-03-23T00:02:53.783Z,74.23
2024-03-23T00:07:59.553Z,74.25
2024-03-23T00:13:04.941Z,74.49
2024-03-23T00:18:09.204Z,74.53
2024-03-23T00:23:13.463Z,74.42
2024-03-23T00:28:17.852Z,74.44
2024-03-23T00:33:22.192Z,74.53
2024-03-23T00:38:26.899Z,74.53
2024-03-23T00:43:31.703Z,74.63
2024-03-23T00:48:36.298Z,74.65
2024-03-23T00:53:40.743Z,74.65
2024-03-23T00:58:45.243Z,74.69
2024-03-23T01:03:49.560Z,74.53
2024-03-23T01:08:53.854Z,74.74
2024-03-23T01:13:58.578Z,74.75
2024-03-23T01:19:03.337Z,74.56
2024-03-23T01:24:09.788Z,74.83
2024-03-23T01:29:14.644Z,74.55
2024-03-23T01:34:20.216Z,74.66
2024-03-23T01:39:24.665Z,74.61
2024-03-23T01:44:29.120Z,74.70
2024-03-23T01:49:33.508Z,74.25
2024-03-23T01:54:36.835Z,74.11
2024-03-23T01:59:41.213Z,74.04
2024-03-23T02:04:46.492Z,74.00
2024-03-23T02:09:51.282Z,74.03
2024-03-23T02:14:56.139Z,73.59
2024-03-23T02:20:00.996Z,73.47
2024-03-23T02:25:06.137Z,73.70
2024-03-23T02:30:11.375Z,73.33
2024-03-23T02:35:16.023Z,73.46
2024-03-23T02:40:21.507Z,73.32
2024-03-23T02:45:26.001Z,73.29
2024-03-23T02:50:30.557Z,73.06
2024-03-23T02:55:34.960Z,73.20
2024-03-23T03:06:31.766Z,73.22
2024-03-23T03:11:36.266Z,73.43
2024-03-23T03:16:40.848Z,73.29
2024-03-23T03:21:45.209Z,73.20
2024-03-23T03:26:50.528Z,73.37
2024-03-23T03:31:54.926Z,73.17
2024-03-23T03:36:59.840Z,73.24
2024-03-23T03:42:07.436Z,73.23
2024-03-23T03:47:11.987Z,73.33
2024-03-23T03:52:16.238Z,73.32
2024-03-23T03:57:20.664Z,73.57
2024-03-23T04:02:25.047Z,73.56
2024-03-23T04:07:29.428Z,73.54
2024-03-23T04:12:33.822Z,73.72
2024-03-23T04:17:38.576Z,73.36
2024-03-23T04:22:43.037Z,73.47
2024-03-23T04:27:47.396Z,73.53
2024-03-23T04:32:51.977Z,73.79
2024-03-23T04:37:59.464Z,73.57
2024-03-23T04:43:05.438Z,73.80
2024-03-23T04:48:10.943Z,73.86
2024-03-23T04:53:16.596Z,73.69
2024-03-23T04:58:21.029Z,73.96
2024-03-23T05:03:25.395Z,73.67
2024-03-23T05:08:31.121Z,73.88
2024-03-23T05:13:35.363Z,73.75
2024-03-23T05:18:39.832Z,73.70
2024-03-23T05:23:44.805Z,73.75
2024-03-23T05:28:49.105Z,73.78
2024-03-23T05:33:53.678Z,74.07
2024-03-23T05:38:57.954Z,74.01
2024-03-23T05:44:02.319Z,73.93
2024-03-23T05:49:06.646Z,73.82
2024-03-23T05:54:10.100Z,73.80
2024-03-23T05:59:14.539Z,73.87
2024-03-23T06:04:19.202Z,73.82
2024-03-23T06:09:23.474Z,73.99
2024-03-23T06:14:27.772Z,73.81
2024-03-23T06:19:32.410Z,73.87
2024-03-23T06:24:36.771Z,74.08
2024-03-23T06:29:41.036Z,73.95
2024-03-23T06:34:45.611Z,73.79
2024-03-23T06:39:49.912Z,73.74
2024-03-23T06:44:54.328Z,73.88
2024-03-23T06:49:58.614Z,74.45
2024-03-23T06:55:05.266Z,74.47
2024-03-23T07:00:10.918Z,74.33
2024-03-23T07:05:15.970Z,74.52
2024-03-23T07:10:20.587Z,74.17
2024-03-23T07:15:24.961Z,74.22
2024-03-23T07:20:31.414Z,74.20
2024-03-23T07:25:35.902Z,74.22
2024-03-23T07:30:40.466Z,74.44
2024-03-23T07:35:45.181Z,74.42
2024-03-23T07:40:50.801Z,74.40
2024-03-23T07:45:55.169Z,74.12
2024-03-23T07:51:00.778Z,73.91
2024-03-23T07:56:07.006Z,73.92
2024-03-23T08:01:11.687Z,73.83
2024-03-23T08:06:16.712Z,73.81
2024-03-23T08:11:20.938Z,73.37
2024-03-23T08:16:25.687Z,73.31
2024-03-23T08:21:30.176Z,73.22
2024-03-23T08:26:33.811Z,73.16
2024-03-23T08:31:38.904Z,73.04
2024-03-23T08:36:43.748Z,73.23
2024-03-23T08:41:48.097Z,72.88
2024-03-23T08:46:52.827Z,72.87
2024-03-23T08:51:57.212Z,72.57
2024-03-23T08:57:01.522Z,72.06
2024-03-23T09:02:06.037Z,72.24
2024-03-23T09:07:10.846Z,72.12
2024-03-23T09:12:15.638Z,71.73
2024-03-23T09:17:20.153Z,71.38
2024-03-23T09:22:25.310Z,70.98
2024-03-23T09:27:29.695Z,70.98
2024-03-23T09:32:33.944Z,70.90
2024-03-23T09:37:38.473Z,70.78
2024-03-23T09:42:47.947Z,70.67
2024-03-23T09:47:52.410Z,70.76
2024-03-23T09:52:56.578Z,71.26
2024-03-23T09:58:01.471Z,70.90
2024-03-23T10:03:08.903Z,70.95
2024-03-23T10:08:22.333Z,70.76
2024-03-23T10:13:30.191Z,70.38
2024-03-23T10:18:39.607Z,70.08
2024-03-23T10:23:45.081Z,70.23
2024-03-23T10:28:55.797Z,69.77
2024-03-23T10:34:01.792Z,69.91
2024-03-23T10:39:08.891Z,70.01
2024-03-23T10:44:13.705Z,69.97
2024-03-23T10:49:17.998Z,69.72
2024-03-23T10:54:23.054Z,69.65
2024-03-23T10:59:27.981Z,69.66
2024-03-23T11:04:36.118Z,69.35
2024-03-23T11:09:46.054Z,69.44
2024-03-23T11:14:51.188Z,69.20
2024-03-23T11:19:59.619Z,69.17
2024-03-23T11:25:04.437Z,69.45
2024-03-23T11:30:16.799Z,69.25
2024-03-23T11:35:31.904Z,69.30
2024-03-23T11:40:37.831Z,69.54
2024-03-23T11:45:42.666Z,69.79
2024-03-23T11:50:47.544Z,69.88
2024-03-23T11:55:52.904Z,69.74
2024-03-23T12:00:59.148Z,69.83
2024-03-23T12:06:04.835Z,70.28
2024-03-23T12:11:10.596Z,70.00
2024-03-23T12:16:15.572Z,69.89
2024-03-23T12:21:20.514Z,70.15
2024-03-23T12:26:25.209Z,70.05
2024-03-23T12:31:29.514Z,70.14
2024-03-23T12:36:33.890Z,69.92
2024-03-23T12:41:38.673Z,69.89
2024-03-23T12:46:43.409Z,69.86
2024-03-23T12:51:50.257Z,69.67
2024-03-23T12:56:54.356Z,69.77
2024-03-23T13:01:59.122Z,69.67
2024-03-23T13:07:03.277Z,69.86
2024-03-23T13:12:08.528Z,69.46
2024-03-23T13:17:13.360Z,69.67
2024-03-23T13:22:17.084Z,69.60
2024-03-23T13:27:21.799Z,69.78
2024-03-23T13:32:26.510Z,69.78
2024-03-23T13:37:30.833Z,69.70
2024-03-23T13:42:34.662Z,69.81
2024-03-23T13:47:39.446Z,69.92
2024-03-23T13:52:43.596Z,69.79
2024-03-23T13:57:47.883Z,69.77
2024-03-23T14:02:52.640Z,69.89
2024-03-23T14:07:56.907Z,69.97
2024-03-23T14:13:01.273Z,69.67
2024-03-23T14:18:05.744Z,69.76
2024-03-23T14:23:10.097Z,69.70
2024-03-23T14:28:17.204Z,69.91
2024-03-23T14:33:21.595Z,69.90
2024-03-23T14:38:26.106Z,70.15
2024-03-23T14:43:30.614Z,70.12
2024-03-23T14:48:35.639Z,70.33
2024-03-23T14:53:41.090Z,70.20
2024-03-23T14:58:46.603Z,70.38
2024-03-23T15:03:54.244Z,70.28
2024-03-23T15:08:58.448Z,70.33
2024-03-23T15:14:02.742Z,70.20
2024-03-23T15:19:07.505Z,70.17
2024-03-23T15:24:12.695Z,70.44
2024-03-23T15:29:18.091Z,70.53
2024-03-23T15:34:23.064Z,70.49
2024-03-23T15:39:30.585Z,70.60
2024-03-23T15:44:35.942Z,70.77
2024-03-23T15:49:40.201Z,70.92
2024-03-23T15:54:46.798Z,70.93
2024-03-23T15:59:51.469Z,71.06
2024-03-23T16:04:55.885Z,71.00
2024-03-23T16:10:06.442Z,71.10
2024-03-23T16:15:11.626Z,71.29
2024-03-23T16:20:16.001Z,71.44
2024-03-23T16:25:20.260Z,71.60
2024-03-23T16:30:24.768Z,71.53
2024-03-23T16:35:29.007Z,71.57
2024-03-23T16:40:33.447Z,71.90
2024-03-23T16:45:37.904Z,71.94
2024-03-23T16:50:43.213Z,71.88
2024-03-23T16:55:47.551Z,71.93
2024-03-23T17:00:53.759Z,71.99
2024-03-23T17:05:58.044Z,72.06
2024-03-23T17:11:02.493Z,72.10
2024-03-23T17:16:08.059Z,72.09
2024-03-23T17:21:12.229Z,72.29
2024-03-23T17:26:20.796Z,72.00
2024-03-23T17:31:25.413Z,71.88
2024-03-23T17:36:30.944Z,71.53
2024-03-23T17:41:35.599Z,71.39
2024-03-23T17:46:40.411Z,71.23
2024-03-23T17:51:45.670Z,71.33
2024-03-23T17:56:50.104Z,71.46
2024-03-23T18:01:54.943Z,71.45
2024-03-23T18:06:59.201Z,71.82
2024-03-23T18:12:03.480Z,71.68
2024-03-23T18:17:08.251Z,71.79
2024-03-23T18:22:12.843Z,71.81
2024-03-23T18:27:17.564Z,71.89
2024-03-23T18:32:22.712Z,71.97
2024-03-23T18:37:27.489Z,72.09
2024-03-23T18:42:33.846Z,72.19
2024-03-23T18:47:39.699Z,72.41
2024-03-23T18:52:43.961Z,72.48
2024-03-23T18:57:48.735Z,72.55
2024-03-23T19:02:53.040Z,72.73
2024-03-23T19:07:58.423Z,72.81
2024-03-23T19:13:03.550Z,72.79
2024-03-23T19:18:07.783Z,72.91
2024-03-23T19:23:11.968Z,73.07
2024-03-23T19:28:16.664Z,73.16
2024-03-23T19:33:22.079Z,73.24
2024-03-23T19:38:26.775Z,73.08
2024-03-23T19:43:31.904Z,73.41
2024-03-23T19:48:36.594Z,73.30
2024-03-23T19:53:41.290Z,73.43
2024-03-23T19:58:45.146Z,73.51
2024-03-23T20:03:50.100Z,73.66
2024-03-23T20:08:54.948Z,73.66
2024-03-23T20:13:59.369Z,73.58
2024-03-23T20:19:03.648Z,73.49
2024-03-23T20:24:08.540Z,73.67
2024-03-23T20:29:14.277Z,73.40
2024-03-23T20:34:19.659Z,73.46
2024-03-23T20:39:24.277Z,73.42
2024-03-23T20:44:28.675Z,73.54
2024-03-23T20:49:32.998Z,73.50
2024-03-23T20:54:37.408Z,73.28
2024-03-23T20:59:42.388Z,73.50
2024-03-23T21:04:47.263Z,73.43
2024-03-23T21:09:51.987Z,73.50
2024-03-23T21:14:56.835Z,73.46
2024-03-23T21:20:01.264Z,73.51
2024-03-23T21:25:06.835Z,73.56
2024-03-23T21:30:12.117Z,73.55
2024-03-23T21:35:17.491Z,73.66
2024-03-23T21:40:21.295Z,73.44
2024-03-23T21:45:25.695Z,73.69
2024-03-23T21:50:31.330Z,73.63
2024-03-23T21:55:35.913Z,73.87
2024-03-23T22:00:40.308Z,73.79
2024-03-23T22:05:44.809Z,73.80
2024-03-23T22:10:49.495Z,73.77
2024-03-23T22:16:00.030Z,73.97
2024-03-23T22:21:05.288Z,73.97
2024-03-23T22:26:09.798Z,73.91
2024-03-23T22:31:14.470Z,73.92
2024-03-23T22:36:18.970Z,73.93
2024-03-23T22:41:23.547Z,73.85
2024-03-23T22:46:28.038Z,73.91
2024-03-23T22:51:32.905Z,73.86
2024-03-23T22:56:37.964Z,73.57
2024-03-23T23:01:42.766Z,73.79
2024-03-23T23:06:47.603Z,73.53
2024-03-23T23:11:52.406Z,73.55
2024-03-23T23:16:57.350Z,73.63
2024-03-23T23:22:01.204Z,73.66
2024-03-23T23:27:06.190Z,73.63
2024-03-23T23:32:10.587Z,73.60
2024-03-23T23:37:15.939Z,73.81
2024-03-23T23:42:20.258Z,73.59
2024-03-23T23:47:24.909Z,73.49
2024-03-23T23:52:30.458Z,73.80
2024-03-23T23:57:35.231Z,73.70
